createdAt,value
2023-01-07T00:01:28.960Z,101373.47
2023-01-07T00:03:57.659Z,101371.44
2023-01-07T00:06:32.760Z,101360.03
2023-01-07T00:09:00.748Z,101348.00
2023-01-07T00:11:32.880Z,101356.69
2023-01-07T00:14:01.568Z,101342.22
2023-01-07T00:16:31.731Z,101347.00
2023-01-07T00:19:01.403Z,101356.50
2023-01-07T00:21:29.835Z,101357.41
2023-01-07T00:24:03.583Z,101357.63
2023-01-07T00:26:34.691Z,101356.56
2023-01-07T00:29:01.934Z,101358.69
2023-01-07T00:31:33.669Z,101355.06
2023-01-07T00:34:01.392Z,101338.88
2023-01-07T00:36:33.560Z,101346.72
2023-01-07T00:39:04.896Z,101339.38
2023-01-07T00:41:32.246Z,101332.78
2023-01-07T00:43:59.370Z,101324.50
2023-01-07T00:46:26.791Z,101321.34
2023-01-07T00:48:53.762Z,101318.06
2023-01-07T00:51:21.054Z,101313.97
2023-01-07T00:53:48.119Z,101307.16
2023-01-07T00:56:17.700Z,101313.63
2023-01-07T00:58:44.853Z,101317.72
2023-01-07T01:01:12.296Z,101318.78
2023-01-07T01:03:40.008Z,101311.78
2023-01-07T01:06:12.723Z,101297.84
2023-01-07T01:08:45.394Z,101298.66
2023-01-07T01:11:15.073Z,101297.16
2023-01-07T01:13:44.083Z,101300.03
2023-01-07T01:16:18.170Z,101293.19
2023-01-07T01:18:46.272Z,101297.59
2023-01-07T01:21:15.554Z,101283.72
2023-01-07T01:23:43.202Z,101279.34
2023-01-07T01:26:13.985Z,101271.25
2023-01-07T01:28:42.011Z,101264.06
2023-01-07T01:31:09.458Z,101264.88
2023-01-07T01:33:36.575Z,101270.19
2023-01-07T01:36:06.442Z,101268.16
2023-01-07T01:38:33.365Z,101261.81
2023-01-07T01:41:00.306Z,101264.22
2023-01-07T01:43:39.693Z,101259.03
2023-01-07T01:46:40.319Z,101258.88
2023-01-07T01:49:24.213Z,101257.59
2023-01-07T01:52:22.707Z,101262.41
2023-01-07T01:54:55.404Z,101253.91
2023-01-07T01:57:24.272Z,101247.44
2023-01-07T01:59:52.860Z,101253.53
2023-01-07T02:02:31.008Z,101242.28
2023-01-07T02:04:58.523Z,101242.09
2023-01-07T02:07:25.534Z,101235.66
2023-01-07T02:10:11.806Z,101240.16
2023-01-07T02:12:56.642Z,101253.69
2023-01-07T02:15:54.659Z,101245.03
2023-01-07T02:19:00.877Z,101242.28
2023-01-07T02:22:40.943Z,101246.78
2023-01-07T02:25:13.396Z,101256.50
2023-01-07T02:28:03.952Z,101243.81
2023-01-07T02:31:26.451Z,101239.41
2023-01-07T02:34:09.785Z,101244.34
2023-01-07T02:37:06.997Z,101234.94
2023-01-07T02:40:03.054Z,101236.91
2023-01-07T02:43:04.050Z,101234.19
2023-01-07T02:45:37.266Z,101235.84
2023-01-07T02:48:12.708Z,101216.97
2023-01-07T02:50:39.771Z,101223.38
2023-01-07T02:53:10.616Z,101217.88
2023-01-07T02:56:15.348Z,101217.91
2023-01-07T02:59:33.395Z,101215.91
2023-01-07T03:02:16.906Z,101206.50
2023-01-07T03:05:08.245Z,101208.38
2023-01-07T03:08:12.347Z,101202.75
2023-01-07T03:11:03.081Z,101198.34
2023-01-07T03:14:08.185Z,101184.28
2023-01-07T03:16:45.383Z,101180.28
2023-01-07T03:19:19.075Z,101176.75
2023-01-07T03:21:48.720Z,101177.13
2023-01-07T03:24:17.131Z,101176.50
2023-01-07T03:26:49.560Z,101167.63
2023-01-07T03:29:18.885Z,101177.88
2023-01-07T03:31:59.777Z,101166.66
2023-01-07T03:34:28.556Z,101154.69
2023-01-07T03:37:08.302Z,101151.16
2023-01-07T03:39:38.629Z,101154.88
2023-01-07T03:42:29.932Z,101146.69
2023-01-07T03:44:58.080Z,101150.34
2023-01-07T03:47:27.248Z,101142.56
2023-01-07T03:49:54.210Z,101141.19
2023-01-07T03:52:21.280Z,101148.25
2023-01-07T03:54:48.225Z,101147.75
2023-01-07T03:57:15.176Z,101141.94
2023-01-07T03:59:42.167Z,101143.13
2023-01-07T04:02:10.279Z,101124.25
2023-01-07T04:04:37.411Z,101124.53
2023-01-07T04:07:04.491Z,101124.25
2023-01-07T04:09:31.498Z,101122.91
2023-01-07T04:11:58.535Z,101118.66
2023-01-07T04:14:25.488Z,101116.69
2023-01-07T04:16:52.633Z,101104.44
2023-01-07T04:19:19.798Z,101109.41
2023-01-07T04:21:46.815Z,101101.91
2023-01-07T04:24:13.889Z,101096.22
2023-01-07T04:26:40.923Z,101105.06
2023-01-07T04:29:08.007Z,101090.63
2023-01-07T04:31:35.268Z,101077.47
2023-01-07T04:34:02.312Z,101073.69
2023-01-07T04:36:29.529Z,101064.94
2023-01-07T04:38:56.516Z,101060.19
2023-01-07T04:41:23.475Z,101068.19
2023-01-07T04:43:50.539Z,101065.94
2023-01-07T04:46:17.552Z,101066.31
2023-01-07T04:48:45.590Z,101048.34
2023-01-07T04:51:12.544Z,101041.06
2023-01-07T04:53:39.487Z,101033.88
2023-01-07T04:56:06.942Z,101030.34
2023-01-07T04:58:34.337Z,101033.09
2023-01-07T05:01:07.046Z,101035.38
2023-01-07T05:03:37.240Z,101030.22
2023-01-07T05:06:04.508Z,101017.22
2023-01-07T05:08:31.527Z,101028.69
2023-01-07T05:10:58.487Z,101010.09
2023-01-07T05:13:25.482Z,101004.56
2023-01-07T05:15:52.650Z,101005.75
2023-01-07T05:18:19.879Z,101003.25
2023-01-07T05:20:50.137Z,101008.44
2023-01-07T05:23:17.066Z,101004.34
2023-01-07T05:25:44.313Z,101004.09
2023-01-07T05:28:12.238Z,100996.72
2023-01-07T05:30:39.604Z,100993.31
2023-01-07T05:33:07.574Z,100992.19
2023-01-07T05:35:35.756Z,100985.75
2023-01-07T05:38:02.769Z,100992.78
2023-01-07T05:40:29.727Z,100980.91
2023-01-07T05:42:56.791Z,100977.38
2023-01-07T05:45:23.828Z,100981.00
2023-01-07T05:47:50.827Z,100974.78
2023-01-07T05:50:17.981Z,100970.09
2023-01-07T05:52:44.969Z,100976.84
2023-01-07T05:55:12.639Z,100975.41
2023-01-07T05:57:39.620Z,100970.88
2023-01-07T06:00:08.076Z,100976.28
2023-01-07T06:02:35.005Z,100978.72
2023-01-07T06:05:02.070Z,100972.22
2023-01-07T06:07:29.034Z,100974.19
2023-01-07T06:09:55.989Z,100974.78
2023-01-07T06:12:23.006Z,100973.28
2023-01-07T06:14:49.985Z,100970.56
2023-01-07T06:17:17.012Z,100963.41
2023-01-07T06:19:44.040Z,100964.41
2023-01-07T06:22:11.312Z,100969.78
2023-01-07T06:24:38.808Z,100968.44
2023-01-07T06:27:05.799Z,100962.56
2023-01-07T06:29:32.806Z,100962.28
2023-01-07T06:31:59.921Z,100960.41
2023-01-07T06:34:26.939Z,100957.75
2023-01-07T06:36:53.895Z,100955.09
2023-01-07T06:39:20.811Z,100952.41
2023-01-07T06:41:47.784Z,100947.50
2023-01-07T06:44:14.745Z,100957.63
2023-01-07T06:46:41.797Z,100948.13
2023-01-07T06:49:08.991Z,100962.97
2023-01-07T06:51:36.225Z,100950.41
2023-01-07T06:54:03.638Z,100947.13
2023-01-07T06:56:30.927Z,100940.22
2023-01-07T06:58:57.933Z,100941.50
2023-01-07T07:01:26.055Z,100931.06
2023-01-07T07:03:53.129Z,100943.16
2023-01-07T07:06:20.317Z,100932.56
2023-01-07T07:08:47.242Z,100932.84
2023-01-07T07:11:14.373Z,100917.56
2023-01-07T07:13:41.313Z,100913.13
2023-01-07T07:16:08.579Z,100914.97
2023-01-07T07:18:36.788Z,100912.84
2023-01-07T07:21:03.889Z,100905.88
2023-01-07T07:23:30.937Z,100905.63
2023-01-07T07:25:57.838Z,100898.66
2023-01-07T07:28:24.771Z,100899.19
2023-01-07T07:30:51.889Z,100893.63
2023-01-07T07:33:19.647Z,100879.31
2023-01-07T07:35:47.558Z,100880.50
2023-01-07T07:38:15.313Z,100865.94
2023-01-07T07:40:42.252Z,100870.03
2023-01-07T07:43:11.628Z,100865.38
2023-01-07T07:45:41.259Z,100862.66
2023-01-07T07:48:10.834Z,100857.63
2023-01-07T07:50:37.861Z,100854.78
2023-01-07T07:53:05.091Z,100851.22
2023-01-07T07:55:32.059Z,100859.94
2023-01-07T07:57:59.012Z,100865.59
2023-01-07T08:00:26.050Z,100853.72
2023-01-07T08:02:53.260Z,100857.28
2023-01-07T08:05:20.224Z,100856.00
2023-01-07T08:07:47.227Z,100846.56
2023-01-07T08:10:14.141Z,100852.63
2023-01-07T08:12:41.207Z,100852.25
2023-01-07T08:15:09.358Z,100846.97
2023-01-07T08:17:36.806Z,100852.50
2023-01-07T08:20:05.831Z,100856.47
2023-01-07T08:22:35.912Z,100857.44
2023-01-07T08:25:03.505Z,100857.44
2023-01-07T08:27:36.511Z,100852.03
2023-01-07T08:30:03.933Z,100847.59
2023-01-07T08:32:30.849Z,100846.56
2023-01-07T08:34:58.044Z,100844.69
2023-01-07T08:37:25.423Z,100825.06
2023-01-07T08:39:52.383Z,100835.44
2023-01-07T08:42:19.344Z,100823.69
2023-01-07T08:44:46.392Z,100821.50
2023-01-07T08:47:13.350Z,100814.38
2023-01-07T08:49:40.427Z,100814.91
2023-01-07T08:52:07.471Z,100799.34
2023-01-07T08:54:34.427Z,100809.03
2023-01-07T08:57:07.329Z,100809.91
2023-01-07T08:59:34.286Z,100797.13
2023-01-07T09:02:01.361Z,100788.59
2023-01-07T09:04:28.486Z,100795.56
2023-01-07T09:06:57.164Z,100790.22
2023-01-07T09:09:24.143Z,100785.91
2023-01-07T09:11:51.090Z,100768.56
2023-01-07T09:14:18.111Z,100762.72
2023-01-07T09:16:45.117Z,100768.03
2023-01-07T09:19:12.137Z,100761.28
2023-01-07T09:21:39.070Z,100758.47
2023-01-07T09:24:06.409Z,100757.47
2023-01-07T09:26:33.392Z,100752.31
2023-01-07T09:29:00.364Z,100756.06
2023-01-07T09:31:27.365Z,100740.59
2023-01-07T09:34:05.378Z,100721.00
2023-01-07T09:36:33.661Z,100732.22
2023-01-07T09:39:01.174Z,100726.22
2023-01-07T09:41:58.430Z,100729.91
2023-01-07T09:44:57.881Z,100722.63
2023-01-07T09:47:29.480Z,100718.59
2023-01-07T09:50:40.396Z,100704.78
2023-01-07T09:53:31.772Z,100705.84
2023-01-07T09:56:12.487Z,100692.03
2023-01-07T09:58:43.252Z,100689.88
2023-01-07T10:01:32.022Z,100695.75
2023-01-07T10:04:16.415Z,100692.66
2023-01-07T10:07:09.533Z,100681.13
2023-01-07T10:09:43.509Z,100684.31
2023-01-07T10:12:27.238Z,100677.81
2023-01-07T10:15:00.246Z,100670.41
2023-01-07T10:17:45.957Z,100664.53
2023-01-07T10:20:18.044Z,100672.50
2023-01-07T10:22:57.777Z,100659.28
2023-01-07T10:25:36.162Z,100654.25
2023-01-07T10:28:19.488Z,100641.63
2023-01-07T10:30:52.287Z,100648.53
2023-01-07T10:33:29.561Z,100653.47
2023-01-07T10:36:34.927Z,100641.28
2023-01-07T10:39:40.955Z,100636.75
2023-01-07T10:42:16.535Z,100631.00
2023-01-07T10:45:26.036Z,100628.16
2023-01-07T10:48:23.435Z,100625.22
2023-01-07T10:51:32.940Z,100607.16
2023-01-07T10:54:50.034Z,100605.56
2023-01-07T10:57:28.121Z,100590.84
2023-01-07T11:00:03.631Z,100584.81
2023-01-07T11:02:31.054Z,100571.38
2023-01-07T11:04:59.080Z,100579.69
2023-01-07T11:07:51.299Z,100575.94
2023-01-07T11:10:21.260Z,100556.38
2023-01-07T11:13:03.990Z,100551.59
2023-01-07T11:15:53.389Z,100551.53
2023-01-07T11:18:28.312Z,100529.56
2023-01-07T11:20:57.835Z,100531.69
2023-01-07T11:23:38.681Z,100542.56
2023-01-07T11:26:27.590Z,100524.66
2023-01-07T11:29:00.279Z,100517.00
2023-01-07T11:31:50.127Z,100501.19
2023-01-07T11:34:26.860Z,100513.31
2023-01-07T11:36:54.423Z,100506.06
2023-01-07T11:39:29.704Z,100493.13
2023-01-07T11:42:21.644Z,100482.91
2023-01-07T11:44:48.587Z,100470.31
2023-01-07T11:47:19.714Z,100475.91
2023-01-07T11:49:47.240Z,100471.41
2023-01-07T11:52:21.012Z,100457.25
2023-01-07T11:54:52.303Z,100455.41
2023-01-07T11:57:26.550Z,100440.69
2023-01-07T12:00:15.522Z,100430.28
2023-01-07T12:02:42.753Z,100439.69
2023-01-07T12:05:23.453Z,100429.75
2023-01-07T12:07:51.937Z,100435.06
2023-01-07T12:10:35.933Z,100433.38
2023-01-07T12:13:07.287Z,100433.53
2023-01-07T12:16:01.819Z,100428.44
2023-01-07T12:18:49.535Z,100415.63
2023-01-07T12:21:51.513Z,100404.81
2023-01-07T12:24:21.007Z,100402.09
2023-01-07T12:26:58.883Z,100412.03
2023-01-07T12:29:57.523Z,100376.66
2023-01-07T12:33:03.294Z,100373.44
2023-01-07T12:35:37.145Z,100374.88
2023-01-07T12:38:39.453Z,100370.31
2023-01-07T12:41:19.673Z,100364.59
2023-01-07T12:44:15.921Z,100355.63
2023-01-07T12:46:55.110Z,100356.25
2023-01-07T12:49:59.216Z,100347.91
2023-01-07T12:52:41.101Z,100370.47
2023-01-07T12:55:35.581Z,100343.72
2023-01-07T12:58:45.277Z,100340.28
2023-01-07T13:01:40.303Z,100342.34
2023-01-07T13:04:21.567Z,100345.44
2023-01-07T13:07:14.856Z,100346.56
2023-01-07T13:10:01.840Z,100351.50
2023-01-07T13:12:48.182Z,100349.13
2023-01-07T13:15:27.174Z,100364.13
2023-01-07T13:18:02.984Z,100351.00
2023-01-07T13:21:11.152Z,100360.41
2023-01-07T13:24:21.821Z,100354.56
2023-01-07T13:27:45.363Z,100354.78
2023-01-07T13:30:46.112Z,100361.06
2023-01-07T13:33:36.591Z,100358.91
2023-01-07T13:36:27.429Z,100356.78
2023-01-07T13:39:12.817Z,100355.78
2023-01-07T13:42:06.843Z,100342.81
2023-01-07T13:44:55.482Z,100338.66
2023-01-07T13:47:26.711Z,100327.75
2023-01-07T13:50:00.701Z,100317.28
2023-01-07T13:52:32.167Z,100304.97
2023-01-07T13:55:03.419Z,100304.47
2023-01-07T13:57:30.327Z,100299.50
2023-01-07T14:00:03.816Z,100305.38
2023-01-07T14:02:57.890Z,100306.66
2023-01-07T14:05:28.448Z,100295.31
2023-01-07T14:08:00.271Z,100295.78
2023-01-07T14:10:32.003Z,100293.78
2023-01-07T14:13:33.889Z,100291.03
2023-01-07T14:16:19.426Z,100274.94
2023-01-07T14:19:05.972Z,100270.00
2023-01-07T14:22:09.611Z,100273.91
2023-01-07T14:25:05.514Z,100266.03
2023-01-07T14:28:13.611Z,100265.66
2023-01-07T14:30:52.311Z,100253.31
2023-01-07T14:33:40.239Z,100257.09
2023-01-07T14:36:10.200Z,100257.06
2023-01-07T14:38:37.118Z,100246.09
2023-01-07T14:41:15.876Z,100254.44
2023-01-07T14:43:48.556Z,100238.72
2023-01-07T14:46:24.527Z,100240.34
2023-01-07T14:49:03.369Z,100240.34
2023-01-07T14:52:26.920Z,100236.59
2023-01-07T14:55:10.292Z,100226.09
2023-01-07T14:57:50.877Z,100239.91
2023-01-07T15:00:35.995Z,100242.47
2023-01-07T15:03:31.030Z,100229.78
2023-01-07T15:06:15.948Z,100240.06
2023-01-07T15:09:17.522Z,100233.75
2023-01-07T15:12:06.134Z,100229.84
2023-01-07T15:15:03.423Z,100229.00
2023-01-07T15:17:31.158Z,100242.19
2023-01-07T15:19:59.711Z,100238.63
2023-01-07T15:22:59.819Z,100246.19
2023-01-07T15:25:58.391Z,100253.81
2023-01-07T15:28:36.359Z,100262.34
2023-01-07T15:31:39.903Z,100259.81
2023-01-07T15:34:15.219Z,100259.91
2023-01-07T15:36:45.860Z,100256.69
2023-01-07T15:39:35.791Z,100248.47
2023-01-07T15:42:03.625Z,100257.06
2023-01-07T15:44:41.124Z,100247.09
2023-01-07T15:47:41.858Z,100249.38
2023-01-07T15:50:29.920Z,100237.34
2023-01-07T15:53:00.641Z,100241.53
2023-01-07T15:55:33.424Z,100247.63
2023-01-07T15:58:15.202Z,100242.25
2023-01-07T16:00:42.653Z,100245.97
2023-01-07T16:03:16.382Z,100241.66
2023-01-07T16:05:43.994Z,100238.94
2023-01-07T16:08:32.459Z,100240.38
2023-01-07T16:11:28.767Z,100239.63
2023-01-07T16:14:02.311Z,100220.56
2023-01-07T16:16:32.313Z,100222.44
2023-01-07T16:19:03.014Z,100207.78
2023-01-07T16:21:39.699Z,100208.16
2023-01-07T16:24:07.431Z,100191.69
2023-01-07T16:26:41.074Z,100194.22
2023-01-07T16:29:18.555Z,100184.16
2023-01-07T16:31:46.063Z,100192.78
2023-01-07T16:34:24.883Z,100192.41
2023-01-07T16:36:58.315Z,100184.72
2023-01-07T16:39:34.018Z,100193.38
2023-01-07T16:42:19.966Z,100194.13
2023-01-07T16:44:46.944Z,100191.00
2023-01-07T16:47:27.818Z,100195.28
2023-01-07T16:49:58.609Z,100177.97
2023-01-07T16:52:34.685Z,100148.91
2023-01-07T16:55:02.068Z,100155.34
2023-01-07T16:57:42.416Z,100145.34
2023-01-07T17:00:18.630Z,100152.47
2023-01-07T17:02:59.766Z,100146.25
2023-01-07T17:05:30.462Z,100145.50
2023-01-07T17:08:06.140Z,100146.97
2023-01-07T17:10:40.775Z,100139.38
2023-01-07T17:13:32.338Z,100129.41
2023-01-07T17:16:25.534Z,100145.19
2023-01-07T17:18:53.776Z,100129.63
2023-01-07T17:21:42.962Z,100125.53
2023-01-07T17:24:28.521Z,100150.03
2023-01-07T17:26:58.718Z,100140.38
2023-01-07T17:29:36.145Z,100146.25
2023-01-07T17:32:06.624Z,100141.03
2023-01-07T17:34:33.539Z,100133.03
2023-01-07T17:37:00.483Z,100137.56
2023-01-07T17:39:27.448Z,100136.84
2023-01-07T17:42:12.951Z,100160.22
2023-01-07T17:44:39.977Z,100143.13
2023-01-07T17:47:11.056Z,100129.34
2023-01-07T17:49:38.018Z,100122.97
2023-01-07T17:52:05.228Z,100123.28
2023-01-07T17:54:32.335Z,100126.81
2023-01-07T17:56:59.339Z,100136.94
2023-01-07T17:59:30.397Z,100137.75
2023-01-07T18:01:59.018Z,100143.38
2023-01-07T18:04:26.260Z,100138.25
2023-01-07T18:06:53.341Z,100132.66
2023-01-07T18:09:20.611Z,100116.88
2023-01-07T18:12:06.817Z,100123.84
2023-01-07T18:14:33.868Z,100112.19
2023-01-07T18:17:01.037Z,100120.28
2023-01-07T18:19:28.064Z,100126.72
2023-01-07T18:21:55.070Z,100114.78
2023-01-07T18:24:22.257Z,100106.78
2023-01-07T18:26:49.515Z,100108.56
2023-01-07T18:29:16.613Z,100111.88
2023-01-07T18:31:44.861Z,100125.28
2023-01-07T18:34:14.590Z,100119.28
2023-01-07T18:36:42.203Z,100113.44
2023-01-07T18:39:17.544Z,100119.63
2023-01-07T18:41:48.715Z,100129.91
2023-01-07T18:44:17.113Z,100116.00
2023-01-07T18:46:44.055Z,100102.28
2023-01-07T18:49:12.220Z,100099.00
2023-01-07T18:51:39.217Z,100098.88
2023-01-07T18:54:06.395Z,100107.13
2023-01-07T18:56:33.417Z,100117.16
2023-01-07T18:59:00.402Z,100112.69
2023-01-07T19:01:27.551Z,100104.44
2023-01-07T19:03:54.666Z,100116.66
2023-01-07T19:06:21.643Z,100115.19
2023-01-07T19:08:49.059Z,100106.63
2023-01-07T19:11:17.569Z,100106.88
2023-01-07T19:13:44.586Z,100104.88
2023-01-07T19:16:13.353Z,100091.91
2023-01-07T19:18:41.018Z,100090.31
2023-01-07T19:21:11.588Z,100100.72
2023-01-07T19:23:39.079Z,100105.06
2023-01-07T19:26:09.421Z,100100.97
2023-01-07T19:28:36.507Z,100108.66
2023-01-07T19:31:10.756Z,100120.38
2023-01-07T19:33:39.536Z,100114.56
2023-01-07T19:36:10.963Z,100117.84
2023-01-07T19:38:47.489Z,100125.66
2023-01-07T19:41:18.599Z,100113.88
2023-01-07T19:43:46.807Z,100116.28
2023-01-07T19:46:17.776Z,100119.19
2023-01-07T19:48:47.748Z,100114.69
2023-01-07T19:51:15.208Z,100114.66
2023-01-07T19:53:42.201Z,100116.34
2023-01-07T19:56:12.234Z,100110.97
2023-01-07T19:58:40.695Z,100109.41
2023-01-07T20:01:15.385Z,100100.41
2023-01-07T20:03:43.311Z,100101.59
2023-01-07T20:06:20.837Z,100108.94
2023-01-07T20:08:48.257Z,100102.28
2023-01-07T20:11:15.375Z,100106.34
2023-01-07T20:13:46.676Z,100096.44
2023-01-07T20:16:17.650Z,100100.56
2023-01-07T20:18:48.300Z,100109.19
2023-01-07T20:21:18.099Z,100095.91
2023-01-07T20:23:45.474Z,100092.31
2023-01-07T20:26:17.569Z,100093.06
2023-01-07T20:28:45.094Z,100082.13
2023-01-07T20:31:15.556Z,100090.59
2023-01-07T20:33:43.841Z,100106.72
2023-01-07T20:36:14.454Z,100092.34
2023-01-07T20:38:42.999Z,100110.22
2023-01-07T20:41:14.891Z,100097.38
2023-01-07T20:43:42.432Z,100088.66
2023-01-07T20:46:10.384Z,100092.59
2023-01-07T20:48:37.967Z,100102.66
2023-01-07T20:51:09.219Z,100096.19
2023-01-07T20:53:39.006Z,100089.91
2023-01-07T20:56:07.502Z,100094.59
2023-01-07T20:58:37.283Z,100095.13
2023-01-07T21:01:07.657Z,100092.81
2023-01-07T21:03:35.937Z,100086.31
2023-01-07T21:06:02.934Z,100084.31
2023-01-07T21:08:30.303Z,100085.53
2023-01-07T21:10:57.382Z,100064.56
2023-01-07T21:13:24.986Z,100071.72
2023-01-07T21:15:52.335Z,100055.22
2023-01-07T21:18:19.623Z,100057.69
2023-01-07T21:20:47.971Z,100050.25
2023-01-07T21:23:15.015Z,100062.78
2023-01-07T21:25:48.108Z,100073.50
2023-01-07T21:28:15.568Z,100055.16
2023-01-07T21:30:42.638Z,100059.59
2023-01-07T21:33:09.739Z,100062.38
2023-01-07T21:35:41.021Z,100078.59
2023-01-07T21:38:08.181Z,100073.13
2023-01-07T21:40:35.425Z,100060.59
2023-01-07T21:43:02.420Z,100048.34
2023-01-07T21:45:29.397Z,100062.69
2023-01-07T21:47:57.875Z,100061.16
2023-01-07T21:50:24.881Z,100048.44
2023-01-07T21:52:51.925Z,100055.97
2023-01-07T21:55:19.076Z,100047.75
2023-01-07T21:57:46.170Z,100048.75
2023-01-07T22:00:14.202Z,100049.78
2023-01-07T22:02:41.208Z,100051.72
2023-01-07T22:05:09.093Z,100046.34
2023-01-07T22:07:36.079Z,100061.97
2023-01-07T22:10:03.551Z,100060.28
2023-01-07T22:12:30.598Z,100055.19
2023-01-07T22:14:57.541Z,100060.13
2023-01-07T22:17:25.406Z,100063.34
2023-01-07T22:19:52.384Z,100047.59
2023-01-07T22:22:20.976Z,100039.78
2023-01-07T22:24:48.131Z,100039.44
2023-01-07T22:27:15.231Z,100041.50
2023-01-07T22:29:44.036Z,100036.31
2023-01-07T22:32:11.009Z,100025.88
2023-01-07T22:34:38.113Z,100046.34
2023-01-07T22:37:13.470Z,100048.00
2023-01-07T22:39:45.305Z,100063.19
2023-01-07T22:42:24.252Z,100066.09
2023-01-07T22:44:59.117Z,100071.66
2023-01-07T22:47:31.924Z,100060.34
2023-01-07T22:50:01.560Z,100061.50
2023-01-07T22:52:28.620Z,100064.50
2023-01-07T22:54:56.714Z,100064.03
2023-01-07T22:57:23.859Z,100075.50
2023-01-07T22:59:50.810Z,100066.28
2023-01-07T23:02:17.838Z,100073.19
2023-01-07T23:04:44.783Z,100063.63
2023-01-07T23:07:11.924Z,100067.06
2023-01-07T23:09:38.887Z,100062.28
2023-01-07T23:12:06.105Z,100064.50
2023-01-07T23:14:33.059Z,100068.44
2023-01-07T23:17:00.130Z,100061.66
2023-01-07T23:19:27.096Z,100059.41
2023-01-07T23:21:55.538Z,100077.88
2023-01-07T23:24:23.446Z,100069.59
2023-01-07T23:26:53.463Z,100054.97
2023-01-07T23:29:21.231Z,100055.50
2023-01-07T23:31:48.624Z,100043.19
2023-01-07T23:34:16.426Z,100061.09
2023-01-07T23:36:43.431Z,100051.88
2023-01-07T23:39:10.446Z,100039.28
2023-01-07T23:41:37.612Z,100024.69
2023-01-07T23:44:04.921Z,100020.19
2023-01-07T23:46:32.167Z,100023.31
2023-01-07T23:48:59.196Z,100024.28
2023-01-07T23:51:26.261Z,100017.63
2023-01-07T23:53:53.867Z,100013.66
2023-01-07T23:56:21.743Z,100016.88
2023-01-07T23:58:49.994Z,100009.41
